createdAt,value
2018-01-30T00:02:20.390Z,75.33
2018-01-30T00:04:47.928Z,75.43
2018-01-30T00:07:17.002Z,75.85
2018-01-30T00:09:44.609Z,75.94
2018-01-30T00:12:12.209Z,76.28
2018-01-30T00:14:39.845Z,76.26
2018-01-30T00:17:07.868Z,76.34
2018-01-30T00:19:35.482Z,76.31
2018-01-30T00:22:03.046Z,76.55
2018-01-30T00:24:30.643Z,76.64
2018-01-30T00:26:58.260Z,76.78
2018-01-30T00:29:30.565Z,77.05
2018-01-30T00:31:58.149Z,76.77
2018-01-30T00:34:25.741Z,76.31
2018-01-30T00:36:54.249Z,76.70
2018-01-30T00:39:21.809Z,76.53
2018-01-30T00:41:49.433Z,76.25
2018-01-30T00:44:17.026Z,76.27
2018-01-30T00:46:44.582Z,76.13
2018-01-30T00:49:12.185Z,75.41
2018-01-30T00:51:39.786Z,75.33
2018-01-30T00:54:07.429Z,75.32
2018-01-30T00:56:35.026Z,75.07
2018-01-30T00:59:02.567Z,74.81
2018-01-30T01:01:30.553Z,74.80
2018-01-30T01:03:58.128Z,75.11
2018-01-30T01:06:25.673Z,75.84
2018-01-30T01:08:53.246Z,76.73
2018-01-30T01:11:20.829Z,78.32
2018-01-30T01:13:48.408Z,79.37
2018-01-30T01:16:16.001Z,80.40
2018-01-30T01:18:43.568Z,80.79
2018-01-30T01:23:45.033Z,80.69
2018-01-30T01:26:12.613Z,80.54
2018-01-30T01:28:40.175Z,80.71
2018-01-30T01:31:07.878Z,80.67
2018-01-30T01:33:35.432Z,80.25
2018-01-30T01:36:03.046Z,80.44
2018-01-30T01:38:30.660Z,80.54
2018-01-30T01:40:58.214Z,81.25
2018-01-30T01:43:25.847Z,80.85
2018-01-30T01:45:53.447Z,81.44
2018-01-30T01:48:21.039Z,81.18
2018-01-30T01:50:48.656Z,80.94
2018-01-30T01:53:16.275Z,80.97
2018-01-30T01:55:43.818Z,80.89
2018-01-30T01:58:11.490Z,80.97
2018-01-30T02:00:39.131Z,81.54
2018-01-30T02:03:07.225Z,82.20
2018-01-30T02:05:35.224Z,82.56
2018-01-30T02:08:03.017Z,82.98
2018-01-30T02:10:30.597Z,83.78
2018-01-30T02:12:58.172Z,83.76
2018-01-30T02:15:25.738Z,84.06
2018-01-30T02:17:53.362Z,85.01
2018-01-30T02:20:20.931Z,85.17
2018-01-30T02:22:48.718Z,85.18
2018-01-30T02:25:16.310Z,85.20
2018-01-30T02:27:43.879Z,86.14
2018-01-30T02:30:11.512Z,85.83
2018-01-30T02:32:39.175Z,86.23
2018-01-30T02:35:06.789Z,85.53
2018-01-30T02:37:34.708Z,85.46
2018-01-30T02:40:02.284Z,85.66
2018-01-30T02:42:29.848Z,84.99
2018-01-30T02:44:57.482Z,85.41
2018-01-30T02:47:25.057Z,84.79
2018-01-30T02:49:52.602Z,84.68
2018-01-30T02:52:20.338Z,84.55
2018-01-30T02:54:47.943Z,84.65
2018-01-30T02:57:15.517Z,84.32
2018-01-30T02:59:43.114Z,84.62
2018-01-30T03:02:10.670Z,84.14
2018-01-30T03:04:38.322Z,83.84
2018-01-30T03:07:06.003Z,84.13
2018-01-30T03:09:33.734Z,83.46
2018-01-30T03:12:01.413Z,83.30
2018-01-30T03:14:29.005Z,82.93
2018-01-30T03:16:56.601Z,82.92
2018-01-30T03:19:24.177Z,82.60
2018-01-30T03:21:51.768Z,82.37
2018-01-30T03:24:19.446Z,82.73
2018-01-30T03:26:47.835Z,82.19
2018-01-30T03:29:15.425Z,82.05
2018-01-30T03:31:43.095Z,81.81
2018-01-30T03:34:10.690Z,81.91
2018-01-30T03:36:38.253Z,81.77
2018-01-30T03:39:06.594Z,81.71
2018-01-30T03:41:34.277Z,81.55
2018-01-30T03:44:02.832Z,80.55
2018-01-30T03:46:30.823Z,80.39
2018-01-30T03:48:58.410Z,80.87
2018-01-30T03:51:25.962Z,80.71
2018-01-30T03:53:53.872Z,80.58
2018-01-30T03:56:21.544Z,80.71
2018-01-30T03:58:49.123Z,80.31
2018-01-30T04:01:16.783Z,80.46
2018-01-30T04:03:44.369Z,80.38
2018-01-30T04:06:13.478Z,80.45
2018-01-30T04:08:41.205Z,81.01
2018-01-30T04:11:09.174Z,80.76
2018-01-30T04:13:36.994Z,79.96
2018-01-30T04:16:04.616Z,79.66
2018-01-30T04:18:32.170Z,79.47
2018-01-30T04:20:59.752Z,79.72
2018-01-30T04:23:27.381Z,79.83
2018-01-30T04:25:54.971Z,79.61
2018-01-30T04:28:22.994Z,79.55
2018-01-30T04:30:50.629Z,79.84
2018-01-30T04:33:18.252Z,79.85
2018-01-30T04:35:45.841Z,79.44
2018-01-30T04:38:13.449Z,79.51
2018-01-30T04:40:41.026Z,79.87
2018-01-30T04:43:10.425Z,79.45
2018-01-30T04:45:38.593Z,80.15
2018-01-30T04:50:38.301Z,81.07
2018-01-30T04:53:05.994Z,81.47
2018-01-30T04:55:33.717Z,81.94
2018-01-30T04:58:01.309Z,81.69
2018-01-30T05:00:28.897Z,81.59
2018-01-30T05:02:56.437Z,81.89
2018-01-30T05:05:24.021Z,82.23
2018-01-30T05:07:51.568Z,83.72
2018-01-30T05:10:19.335Z,83.84
2018-01-30T05:12:46.913Z,84.93
2018-01-30T05:15:14.481Z,84.74
2018-01-30T05:17:42.101Z,85.13
2018-01-30T05:20:09.688Z,84.53
2018-01-30T05:22:37.316Z,85.62
2018-01-30T05:25:04.932Z,86.61
2018-01-30T05:27:32.537Z,87.60
2018-01-30T05:30:00.110Z,87.94
2018-01-30T05:32:27.699Z,88.33
2018-01-30T05:34:55.356Z,88.15
2018-01-30T05:37:23.028Z,88.38
2018-01-30T05:39:50.673Z,88.05
2018-01-30T05:42:19.227Z,88.95
2018-01-30T05:44:46.792Z,89.73
2018-01-30T05:47:14.380Z,89.95
2018-01-30T05:49:42.006Z,90.32
2018-01-30T05:52:09.708Z,89.78
2018-01-30T05:54:37.336Z,90.33
2018-01-30T05:57:04.972Z,89.50
2018-01-30T05:59:32.579Z,89.33
2018-01-30T06:02:00.188Z,89.60
2018-01-30T06:04:27.759Z,89.76
2018-01-30T06:06:55.308Z,89.06
2018-01-30T06:09:23.030Z,89.05
2018-01-30T06:11:50.789Z,89.27
2018-01-30T06:14:18.358Z,89.08
2018-01-30T06:16:46.263Z,89.16
2018-01-30T06:19:14.297Z,89.74
2018-01-30T06:21:41.917Z,90.42
2018-01-30T06:24:09.591Z,90.15
2018-01-30T06:26:37.222Z,90.28
2018-01-30T06:29:04.875Z,90.29
2018-01-30T06:31:32.495Z,89.31
2018-01-30T06:34:00.298Z,89.58
2018-01-30T06:36:27.993Z,88.73
2018-01-30T06:38:55.554Z,89.09
2018-01-30T06:41:23.138Z,88.91
2018-01-30T06:43:50.826Z,89.18
2018-01-30T06:46:18.837Z,88.97
2018-01-30T06:48:47.042Z,89.22
2018-01-30T06:51:14.797Z,89.19
2018-01-30T06:53:42.379Z,88.07
2018-01-30T06:56:09.968Z,88.03
2018-01-30T06:58:37.588Z,87.36
2018-01-30T07:01:05.131Z,86.99
2018-01-30T07:03:34.256Z,86.33
2018-01-30T07:06:01.888Z,86.31
2018-01-30T07:08:29.452Z,86.44
2018-01-30T07:10:57.988Z,85.18
2018-01-30T07:13:25.633Z,85.49
2018-01-30T07:15:53.171Z,85.54
2018-01-30T07:18:20.729Z,84.77
2018-01-30T07:20:48.591Z,84.50
2018-01-30T07:23:16.168Z,84.14
2018-01-30T07:25:43.799Z,85.04
2018-01-30T07:28:14.223Z,84.01
2018-01-30T07:30:41.914Z,84.03
2018-01-30T07:33:10.522Z,84.39
2018-01-30T07:35:38.285Z,83.84
2018-01-30T07:38:06.185Z,83.17
2018-01-30T07:40:33.912Z,82.97
2018-01-30T07:43:01.493Z,82.37
2018-01-30T07:45:29.088Z,82.11
2018-01-30T07:47:58.266Z,82.24
2018-01-30T07:50:25.872Z,81.45
2018-01-30T07:52:54.932Z,81.48
2018-01-30T07:55:22.614Z,82.37
2018-01-30T07:57:50.242Z,81.53
2018-01-30T08:00:17.853Z,81.57
2018-01-30T08:02:45.415Z,80.61
2018-01-30T08:05:13.265Z,79.75
2018-01-30T08:07:40.885Z,79.83
2018-01-30T08:10:08.516Z,79.43
2018-01-30T08:12:36.133Z,77.80
2018-01-30T08:15:03.731Z,77.38
2018-01-30T08:17:31.402Z,77.83
2018-01-30T08:19:59.180Z,77.65
2018-01-30T08:22:28.034Z,77.77
2018-01-30T08:24:55.846Z,77.71
2018-01-30T08:27:23.710Z,77.67
2018-01-30T08:29:51.263Z,77.53
2018-01-30T08:32:18.824Z,77.67
2018-01-30T08:34:46.402Z,77.63
2018-01-30T08:37:13.953Z,77.81
2018-01-30T08:39:41.556Z,78.04
2018-01-30T08:42:09.136Z,78.13
2018-01-30T08:44:36.760Z,77.68
2018-01-30T08:47:04.540Z,77.94
2018-01-30T08:49:32.196Z,77.09
2018-01-30T08:51:59.745Z,77.60
2018-01-30T08:54:27.885Z,77.17
2018-01-30T08:56:55.481Z,76.39
2018-01-30T08:59:23.199Z,76.86
2018-01-30T09:01:50.779Z,76.04
2018-01-30T09:04:18.386Z,74.75
2018-01-30T09:06:45.961Z,75.72
2018-01-30T09:09:13.574Z,74.69
2018-01-30T09:11:41.124Z,75.09
2018-01-30T09:14:08.747Z,75.18
2018-01-30T09:16:36.358Z,75.37
2018-01-30T09:21:54.027Z,74.47
2018-01-30T09:24:21.613Z,74.70
2018-01-30T09:26:49.330Z,73.90
2018-01-30T09:29:16.985Z,72.88
2018-01-30T09:31:44.552Z,73.06
2018-01-30T09:34:12.124Z,71.79
2018-01-30T09:36:39.700Z,72.72
2018-01-30T09:39:07.609Z,72.69
2018-01-30T09:41:35.160Z,71.75
2018-01-30T09:44:02.763Z,72.33
2018-01-30T09:46:30.345Z,70.52
2018-01-30T09:48:57.974Z,69.74
2018-01-30T09:51:25.585Z,69.05
2018-01-30T09:53:53.136Z,70.25
2018-01-30T09:56:20.792Z,70.04
2018-01-30T09:58:48.563Z,69.87
2018-01-30T10:01:16.174Z,70.17
2018-01-30T10:03:43.760Z,69.12
2018-01-30T10:06:11.434Z,68.51
2018-01-30T10:08:39.026Z,69.50
2018-01-30T10:11:06.705Z,67.75
2018-01-30T10:13:36.251Z,68.07
2018-01-30T10:16:03.841Z,65.06
2018-01-30T10:18:31.465Z,64.76
2018-01-30T10:20:59.059Z,66.34
2018-01-30T10:23:26.803Z,64.66
2018-01-30T10:25:54.393Z,66.45
2018-01-30T10:28:24.016Z,66.23
2018-01-30T10:30:51.577Z,66.12
2018-01-30T10:33:19.381Z,66.66
2018-01-30T10:35:46.943Z,67.16
2018-01-30T10:38:14.618Z,65.31
2018-01-30T10:40:42.208Z,64.46
2018-01-30T10:43:10.602Z,65.21
2018-01-30T10:45:38.188Z,65.29
2018-01-30T10:48:05.794Z,64.75
2018-01-30T10:50:33.955Z,66.01
2018-01-30T10:53:01.482Z,66.50
2018-01-30T10:55:29.268Z,65.26
2018-01-30T10:57:56.819Z,65.28
2018-01-30T11:00:24.424Z,64.39
2018-01-30T11:02:51.981Z,65.24
2018-01-30T11:05:19.544Z,65.11
2018-01-30T11:07:48.909Z,65.98
2018-01-30T11:10:16.548Z,65.61
2018-01-30T11:12:44.095Z,66.58
2018-01-30T11:15:13.640Z,65.62
2018-01-30T11:20:13.353Z,65.42
2018-01-30T11:22:40.927Z,65.95
2018-01-30T11:25:09.942Z,65.82
2018-01-30T11:27:38.097Z,66.33
2018-01-30T11:30:06.775Z,66.41
2018-01-30T11:32:34.535Z,66.09
2018-01-30T11:35:02.188Z,66.92
2018-01-30T11:37:30.557Z,65.50
2018-01-30T11:39:59.311Z,66.90
2018-01-30T11:42:29.819Z,65.92
2018-01-30T11:44:57.408Z,65.55
2018-01-30T11:47:25.046Z,66.13
2018-01-30T11:49:54.925Z,65.20
2018-01-30T11:52:22.570Z,66.24
2018-01-30T11:54:50.200Z,66.17
2018-01-30T11:57:17.908Z,66.42
2018-01-30T11:59:45.468Z,66.58
2018-01-30T12:02:13.074Z,65.64
2018-01-30T12:04:40.661Z,65.05
2018-01-30T12:07:08.232Z,64.32
2018-01-30T12:09:35.867Z,63.74
2018-01-30T12:12:03.465Z,63.36
2018-01-30T12:14:31.065Z,63.59
2018-01-30T12:16:59.006Z,63.52
2018-01-30T12:19:26.972Z,63.16
2018-01-30T12:21:54.583Z,61.91
2018-01-30T12:24:22.158Z,62.09
2018-01-30T12:26:49.723Z,59.55
2018-01-30T12:29:17.320Z,58.17
2018-01-30T12:31:44.895Z,56.91
2018-01-30T12:34:12.565Z,58.14
2018-01-30T12:36:40.209Z,57.09
2018-01-30T12:39:07.821Z,58.13
2018-01-30T12:41:35.453Z,56.79
2018-01-30T12:44:03.110Z,60.60
2018-01-30T12:46:30.684Z,62.22
2018-01-30T12:48:58.275Z,63.44
2018-01-30T12:51:25.900Z,64.15
2018-01-30T12:53:53.465Z,63.69
2018-01-30T12:56:21.023Z,64.36
2018-01-30T12:58:48.658Z,64.33
2018-01-30T13:01:16.293Z,64.47
2018-01-30T13:03:43.843Z,63.40
2018-01-30T13:06:11.484Z,63.38
2018-01-30T13:08:39.074Z,63.75
2018-01-30T13:11:06.645Z,62.77
2018-01-30T13:13:34.637Z,62.97
2018-01-30T13:16:02.236Z,62.44
2018-01-30T13:18:29.833Z,63.61
2018-01-30T13:20:57.379Z,62.88
2018-01-30T13:23:25.872Z,63.38
2018-01-30T13:25:53.468Z,62.72
2018-01-30T13:28:22.443Z,62.85
2018-01-30T13:30:50.947Z,62.89
2018-01-30T13:33:18.641Z,63.35
2018-01-30T13:35:46.277Z,63.46
2018-01-30T13:38:13.836Z,62.79
2018-01-30T13:40:41.425Z,63.26
2018-01-30T13:43:09.302Z,63.09
2018-01-30T13:45:36.969Z,62.90
2018-01-30T13:48:04.577Z,63.50
2018-01-30T13:50:32.144Z,63.66
2018-01-30T13:52:59.684Z,63.89
2018-01-30T13:55:27.369Z,63.64
2018-01-30T13:57:54.915Z,63.77
2018-01-30T14:00:22.546Z,64.07
2018-01-30T14:02:50.087Z,64.40
2018-01-30T14:05:17.788Z,63.63
2018-01-30T14:07:45.398Z,64.47
2018-01-30T14:10:13.005Z,63.97
2018-01-30T14:12:40.589Z,64.30
2018-01-30T14:15:08.367Z,64.26
2018-01-30T14:17:35.956Z,64.75
2018-01-30T14:20:03.559Z,65.27
2018-01-30T14:22:31.154Z,64.87
2018-01-30T14:24:58.693Z,65.41
2018-01-30T14:27:26.319Z,66.32
2018-01-30T14:29:53.931Z,66.31
2018-01-30T14:32:21.543Z,66.58
2018-01-30T14:34:49.093Z,67.03
2018-01-30T14:37:16.681Z,67.90
2018-01-30T14:39:44.301Z,67.90
2018-01-30T14:42:11.861Z,68.33
2018-01-30T14:44:39.444Z,68.58
2018-01-30T14:47:07.146Z,68.99
2018-01-30T14:49:34.747Z,68.89
2018-01-30T14:52:02.276Z,68.99
2018-01-30T14:54:29.864Z,69.40
2018-01-30T14:56:57.475Z,69.73
2018-01-30T14:59:25.045Z,69.77
2018-01-30T15:01:52.609Z,70.12
2018-01-30T15:04:20.685Z,70.48
2018-01-30T15:06:48.267Z,70.86
2018-01-30T15:09:16.618Z,71.08
2018-01-30T15:11:44.328Z,70.59
2018-01-30T15:14:11.906Z,70.48
2018-01-30T15:16:39.475Z,70.10
2018-01-30T15:19:07.303Z,70.48
2018-01-30T15:21:35.030Z,70.64
2018-01-30T15:24:04.553Z,70.60
2018-01-30T15:26:32.324Z,70.67
2018-01-30T15:28:59.895Z,71.10
2018-01-30T15:31:27.608Z,71.25
2018-01-30T15:33:55.804Z,71.41
2018-01-30T15:36:23.508Z,71.64
2018-01-30T15:38:51.295Z,71.73
2018-01-30T15:41:22.399Z,72.58
2018-01-30T15:43:50.147Z,72.00
2018-01-30T15:46:18.457Z,71.90
2018-01-30T15:48:46.725Z,72.03
2018-01-30T15:51:14.323Z,72.32
2018-01-30T15:53:41.900Z,72.69
2018-01-30T15:56:10.481Z,72.90
2018-01-30T15:58:38.189Z,73.49
2018-01-30T16:01:05.957Z,73.22
2018-01-30T16:03:33.606Z,74.08
2018-01-30T16:06:01.425Z,74.21
2018-01-30T16:08:29.116Z,74.88
2018-01-30T16:10:56.827Z,76.53
2018-01-30T16:13:24.546Z,76.75
2018-01-30T16:15:52.167Z,77.28
2018-01-30T16:18:19.885Z,77.74
2018-01-30T16:20:47.673Z,78.78
2018-01-30T16:23:15.296Z,79.29
2018-01-30T16:25:42.853Z,80.04
2018-01-30T16:28:10.416Z,80.77
2018-01-30T16:30:38.063Z,80.65
2018-01-30T16:33:05.769Z,81.87
2018-01-30T16:35:34.013Z,82.32
2018-01-30T16:38:01.649Z,82.19
2018-01-30T16:40:29.184Z,82.91
2018-01-30T16:42:56.752Z,82.16
2018-01-30T16:45:24.669Z,82.14
2018-01-30T16:47:52.579Z,82.62
2018-01-30T16:50:20.164Z,83.15
2018-01-30T16:52:47.790Z,83.79
2018-01-30T16:55:15.393Z,83.90
2018-01-30T16:57:43.220Z,84.67
2018-01-30T17:00:11.207Z,85.03
2018-01-30T17:02:38.918Z,84.82
2018-01-30T17:05:06.824Z,85.55
2018-01-30T17:07:38.413Z,85.29
2018-01-30T17:10:06.478Z,85.65
2018-01-30T17:12:34.068Z,85.96
2018-01-30T17:15:01.650Z,86.10
2018-01-30T17:17:29.269Z,85.97
2018-01-30T17:19:56.927Z,86.27
2018-01-30T17:22:24.561Z,86.31
2018-01-30T17:24:52.126Z,86.27
2018-01-30T17:27:19.815Z,85.96
2018-01-30T17:29:47.441Z,86.17
2018-01-30T17:32:15.048Z,86.45
2018-01-30T17:34:42.671Z,86.31
2018-01-30T17:37:11.261Z,86.26
2018-01-30T17:39:39.111Z,86.89
2018-01-30T17:42:06.726Z,86.98
2018-01-30T17:44:34.417Z,87.41
2018-01-30T17:47:02.855Z,87.53
2018-01-30T17:49:31.835Z,87.85
2018-01-30T17:52:00.973Z,87.97
2018-01-30T17:54:30.233Z,87.77
2018-01-30T17:56:57.838Z,87.94
2018-01-30T17:59:25.454Z,88.12
2018-01-30T18:01:53.068Z,88.19
2018-01-30T18:04:28.718Z,87.84
2018-01-30T18:06:56.564Z,87.27
2018-01-30T18:09:24.588Z,87.76
2018-01-30T18:11:52.394Z,87.80
2018-01-30T18:14:20.313Z,87.75
2018-01-30T18:16:48.009Z,87.82
2018-01-30T18:19:15.633Z,87.79
2018-01-30T18:21:43.241Z,87.65
2018-01-30T18:24:10.946Z,87.75
2018-01-30T18:26:38.767Z,87.50
2018-01-30T18:29:07.918Z,87.24
2018-01-30T18:31:35.585Z,87.42
2018-01-30T18:34:03.158Z,87.83
2018-01-30T18:36:32.497Z,88.24
2018-01-30T18:39:00.058Z,88.04
2018-01-30T18:41:27.689Z,88.30
2018-01-30T18:43:55.248Z,88.45
2018-01-30T18:46:22.998Z,87.97
2018-01-30T18:48:50.572Z,88.75
2018-01-30T18:51:18.226Z,88.83
2018-01-30T18:53:46.010Z,88.18
2018-01-30T18:56:13.661Z,87.98
2018-01-30T18:58:41.230Z,88.53
2018-01-30T19:01:08.923Z,88.21
2018-01-30T19:03:36.564Z,88.14
2018-01-30T19:06:04.150Z,88.50
2018-01-30T19:08:31.774Z,88.15
2018-01-30T19:10:59.836Z,88.00
2018-01-30T19:13:28.116Z,87.82
2018-01-30T19:15:55.682Z,88.18
2018-01-30T19:18:23.289Z,88.25
2018-01-30T19:20:50.858Z,88.39
2018-01-30T19:23:18.721Z,88.41
2018-01-30T19:25:47.244Z,87.75
2018-01-30T19:28:14.848Z,87.77
2018-01-30T19:30:42.423Z,87.64
2018-01-30T19:33:10.404Z,87.24
2018-01-30T19:35:38.086Z,87.00
2018-01-30T19:38:06.006Z,86.87
2018-01-30T19:40:33.591Z,87.07
2018-01-30T19:43:02.442Z,87.59
2018-01-30T19:45:30.043Z,87.24
2018-01-30T19:47:59.291Z,87.04
2018-01-30T19:50:26.899Z,86.73
2018-01-30T19:52:54.466Z,86.64
2018-01-30T19:55:22.092Z,86.97
2018-01-30T19:57:49.733Z,87.18
2018-01-30T20:00:17.331Z,87.36
2018-01-30T20:02:44.951Z,87.65
2018-01-30T20:05:12.677Z,87.50
2018-01-30T20:07:40.220Z,87.16
2018-01-30T20:10:07.951Z,87.32
2018-01-30T20:12:35.534Z,87.44
2018-01-30T20:15:03.166Z,87.90
2018-01-30T20:17:36.195Z,87.82
2018-01-30T20:20:03.835Z,88.50
2018-01-30T20:22:31.474Z,88.57
2018-01-30T20:24:59.069Z,89.03
2018-01-30T20:27:26.644Z,89.03
2018-01-30T20:29:54.221Z,89.04
2018-01-30T20:32:22.880Z,89.22
2018-01-30T20:34:50.435Z,89.08
2018-01-30T20:37:22.773Z,89.02
2018-01-30T20:39:50.328Z,88.90
2018-01-30T20:42:17.909Z,89.07
2018-01-30T20:44:45.533Z,89.26
2018-01-30T20:47:13.166Z,89.58
2018-01-30T20:49:40.709Z,89.56
2018-01-30T20:52:08.335Z,89.61
2018-01-30T20:54:35.981Z,89.77
2018-01-30T20:57:03.586Z,90.07
2018-01-30T20:59:31.161Z,90.18
2018-01-30T21:01:58.794Z,90.54
2018-01-30T21:04:26.377Z,90.63
2018-01-30T21:06:53.948Z,90.93
2018-01-30T21:09:21.917Z,91.17
2018-01-30T21:11:49.499Z,91.39
2018-01-30T21:14:17.106Z,91.45
2018-01-30T21:16:44.665Z,91.63
2018-01-30T21:19:12.365Z,91.57
2018-01-30T21:21:40.031Z,91.42
2018-01-30T21:24:07.678Z,91.67
2018-01-30T21:26:35.287Z,92.08
2018-01-30T21:29:02.959Z,92.17
2018-01-30T21:31:30.596Z,92.26
2018-01-30T21:33:58.164Z,92.57
2018-01-30T21:36:25.745Z,92.75
2018-01-30T21:38:53.361Z,92.86
2018-01-30T21:41:21.229Z,92.87
2018-01-30T21:43:48.909Z,92.85
2018-01-30T21:46:16.871Z,92.72
2018-01-30T21:48:44.518Z,92.57
2018-01-30T21:51:12.293Z,92.37
2018-01-30T21:53:39.917Z,92.33
2018-01-30T21:56:07.495Z,92.49
2018-01-30T21:58:35.089Z,92.66
2018-01-30T22:01:02.746Z,92.76
2018-01-30T22:03:30.423Z,92.82
2018-01-30T22:05:58.004Z,92.75
2018-01-30T22:08:25.839Z,92.67
2018-01-30T22:10:53.407Z,92.53
2018-01-30T22:13:20.996Z,92.61
2018-01-30T22:15:48.565Z,92.83
2018-01-30T22:18:16.121Z,92.41
2018-01-30T22:20:43.719Z,92.34
2018-01-30T22:23:11.753Z,92.66
2018-01-30T22:25:39.340Z,92.60
2018-01-30T22:28:07.036Z,92.96
2018-01-30T22:30:34.683Z,92.92
2018-01-30T22:33:02.236Z,92.81
2018-01-30T22:35:29.954Z,92.72
2018-01-30T22:37:57.544Z,90.93
2018-01-30T22:40:25.148Z,90.30
2018-01-30T22:42:52.738Z,90.95
2018-01-30T22:45:20.360Z,91.25
